sensor_id;sensor_type;location;lat;lon;timestamp;pressure;altitude;pressure_sealevel;temperature;humidity
74913;BME280;63878;55.624;37.304;2023-05-14T00:05:34;99566.38;;;10.30;41.10
74913;BME280;63878;55.624;37.304;2023-05-14T00:15:35;99568.09;;;10.20;41.71
74913;BME280;63878;55.624;37.304;2023-05-14T00:25:36;99575.53;;;10.15;41.59
74913;BME280;63878;55.624;37.304;2023-05-14T00:35:36;99581.06;;;10.01;41.87
74913;BME280;63878;55.624;37.304;2023-05-14T00:45:37;99585.34;;;9.57;43.00
74913;BME280;63878;55.624;37.304;2023-05-14T00:55:40;99584.53;;;9.67;43.41
74913;BME280;63878;55.624;37.304;2023-05-14T01:16:12;99587.88;;;9.12;45.09
74913;BME280;63878;55.624;37.304;2023-05-14T01:26:16;99582.69;;;8.99;44.30
74913;BME280;63878;55.624;37.304;2023-05-14T01:36:16;99607.81;;;9.03;44.94
74913;BME280;63878;55.624;37.304;2023-05-14T01:46:18;99592.72;;;8.70;44.93
74913;BME280;63878;55.624;37.304;2023-05-14T01:56:19;99602.88;;;9.23;45.03
74913;BME280;63878;55.624;37.304;2023-05-14T02:06:20;99608.56;;;9.05;45.27
74913;BME280;63878;55.624;37.304;2023-05-14T02:16:20;99619.38;;;9.13;45.15
74913;BME280;63878;55.624;37.304;2023-05-14T02:26:21;99629.13;;;9.00;45.57
74913;BME280;63878;55.624;37.304;2023-05-14T02:36:22;99628.78;;;9.40;45.24
74913;BME280;63878;55.624;37.304;2023-05-14T02:46:22;99628.53;;;9.78;44.09
74913;BME280;63878;55.624;37.304;2023-05-14T02:56:23;99642.19;;;10.17;43.26
74913;BME280;63878;55.624;37.304;2023-05-14T03:06:23;99650.22;;;10.26;42.95
74913;BME280;63878;55.624;37.304;2023-05-14T03:16:23;99652.94;;;10.81;42.00
74913;BME280;63878;55.624;37.304;2023-05-14T03:26:24;99658.41;;;11.21;41.09
74913;BME280;63878;55.624;37.304;2023-05-14T03:36:24;99654.50;;;11.78;40.03
74913;BME280;63878;55.624;37.304;2023-05-14T03:46:25;99641.72;;;11.62;39.33
74913;BME280;63878;55.624;37.304;2023-05-14T03:56:26;99668.56;;;12.30;38.47
74913;BME280;63878;55.624;37.304;2023-05-14T04:06:26;99658.72;;;13.02;36.92
74913;BME280;63878;55.624;37.304;2023-05-14T04:16:27;99662.03;;;12.75;37.34
74913;BME280;63878;55.624;37.304;2023-05-14T04:26:27;99677.53;;;12.98;36.86
74913;BME280;63878;55.624;37.304;2023-05-14T04:36:28;99673.75;;;13.88;35.50
74913;BME280;63878;55.624;37.304;2023-05-14T04:46:29;99681.97;;;13.85;35.49
74913;BME280;63878;55.624;37.304;2023-05-14T04:56:29;99675.19;;;14.20;36.12
74913;BME280;63878;55.624;37.304;2023-05-14T05:06:30;99676.97;;;13.82;35.27
74913;BME280;63878;55.624;37.304;2023-05-14T05:16:30;99668.47;;;13.69;36.18
74913;BME280;63878;55.624;37.304;2023-05-14T05:26:30;99685.16;;;13.98;35.19
74913;BME280;63878;55.624;37.304;2023-05-14T05:36:31;99688.44;;;13.73;36.27
74913;BME280;63878;55.624;37.304;2023-05-14T05:46:32;99692.91;;;13.53;35.82
74913;BME280;63878;55.624;37.304;2023-05-14T05:56:32;99682.06;;;14.03;34.77
74913;BME280;63878;55.624;37.304;2023-05-14T06:06:33;99676.59;;;14.97;33.37
74913;BME280;63878;55.624;37.304;2023-05-14T06:16:34;99672.97;;;15.16;31.94
74913;BME280;63878;55.624;37.304;2023-05-14T06:26:34;99643.81;;;14.33;33.24
74913;BME280;63878;55.624;37.304;2023-05-14T06:36:34;99670.41;;;14.61;33.10
74913;BME280;63878;55.624;37.304;2023-05-14T06:46:35;99697.38;;;13.43;31.94
74913;BME280;63878;55.624;37.304;2023-05-14T06:56:36;99684.88;;;15.29;31.23
74913;BME280;63878;55.624;37.304;2023-05-14T07:06:37;99686.13;;;14.72;30.83
74913;BME280;63878;55.624;37.304;2023-05-14T07:16:38;99704.59;;;13.89;31.15
74913;BME280;63878;55.624;37.304;2023-05-14T07:26:38;99701.69;;;13.34;31.49
74913;BME280;63878;55.624;37.304;2023-05-14T07:36:39;99711.56;;;13.03;32.46
74913;BME280;63878;55.624;37.304;2023-05-14T07:46:39;99718.56;;;13.62;31.87
74913;BME280;63878;55.624;37.304;2023-05-14T07:56:40;99715.66;;;13.75;30.66
74913;BME280;63878;55.624;37.304;2023-05-14T08:06:41;99720.00;;;13.66;29.79
74913;BME280;63878;55.624;37.304;2023-05-14T08:16:41;99722.78;;;13.55;30.23
74913;BME280;63878;55.624;37.304;2023-05-14T08:26:42;99708.81;;;13.82;29.79
74913;BME280;63878;55.624;37.304;2023-05-14T08:36:42;99700.22;;;14.08;32.04
74913;BME280;63878;55.624;37.304;2023-05-14T08:46:43;99712.44;;;13.62;32.55
74913;BME280;63878;55.624;37.304;2023-05-14T08:56:44;99699.47;;;13.49;31.66
74913;BME280;63878;55.624;37.304;2023-05-14T09:06:48;99693.19;;;13.60;31.42
74913;BME280;63878;55.624;37.304;2023-05-14T09:16:50;99697.44;;;14.46;30.35
74913;BME280;63878;55.624;37.304;2023-05-14T09:26:56;99694.28;;;14.33;31.84
74913;BME280;63878;55.624;37.304;2023-05-14T09:46:58;99709.31;;;12.89;34.88
74913;BME280;63878;55.624;37.304;2023-05-14T09:56:59;99694.16;;;14.25;32.74
74913;BME280;63878;55.624;37.304;2023-05-14T10:07:00;99693.91;;;14.83;30.57
74913;BME280;63878;55.624;37.304;2023-05-14T10:17:04;99699.97;;;14.75;31.06
74913;BME280;63878;55.624;37.304;2023-05-14T10:27:05;99685.44;;;15.15;30.13
74913;BME280;63878;55.624;37.304;2023-05-14T10:37:24;99685.25;;;14.99;29.68
74913;BME280;63878;55.624;37.304;2023-05-14T10:47:25;99699.84;;;15.30;30.21
74913;BME280;63878;55.624;37.304;2023-05-14T10:57:27;99698.88;;;15.13;31.68
74913;BME280;63878;55.624;37.304;2023-05-14T11:07:31;99661.91;;;14.93;28.84
74913;BME280;63878;55.624;37.304;2023-05-14T11:17:34;99680.44;;;14.84;29.71
74913;BME280;63878;55.624;37.304;2023-05-14T11:27:37;99649.41;;;15.03;29.56
74913;BME280;63878;55.624;37.304;2023-05-14T11:37:38;99662.16;;;14.54;29.92
74913;BME280;63878;55.624;37.304;2023-05-14T11:47:40;99661.59;;;14.78;30.73
74913;BME280;63878;55.624;37.304;2023-05-14T11:57:41;99661.59;;;14.78;29.88
74913;BME280;63878;55.624;37.304;2023-05-14T12:07:46;99660.13;;;14.66;29.64
74913;BME280;63878;55.624;37.304;2023-05-14T12:17:49;99658.28;;;14.76;29.76
74913;BME280;63878;55.624;37.304;2023-05-14T12:27:50;99659.75;;;14.33;29.88
74913;BME280;63878;55.624;37.304;2023-05-14T12:37:50;99647.84;;;14.65;31.09
74913;BME280;63878;55.624;37.304;2023-05-14T12:47:51;99664.09;;;14.62;28.79
74913;BME280;63878;55.624;37.304;2023-05-14T12:57:52;99663.66;;;14.29;29.47
74913;BME280;63878;55.624;37.304;2023-05-14T13:07:53;99655.59;;;14.21;30.00
74913;BME280;63878;55.624;37.304;2023-05-14T13:17:54;99649.47;;;14.20;29.86
74913;BME280;63878;55.624;37.304;2023-05-14T13:27:54;99660.34;;;14.27;30.06
74913;BME280;63878;55.624;37.304;2023-05-14T13:37:55;99666.31;;;14.29;30.47
74913;BME280;63878;55.624;37.304;2023-05-14T13:47:55;99667.56;;;13.97;30.47
74913;BME280;63878;55.624;37.304;2023-05-14T13:57:56;99672.59;;;14.00;30.84
74913;BME280;63878;55.624;37.304;2023-05-14T14:07:56;99662.72;;;13.83;32.36
74913;BME280;63878;55.624;37.304;2023-05-14T14:17:57;99671.97;;;13.60;31.89
74913;BME280;63878;55.624;37.304;2023-05-14T14:27:57;99681.31;;;13.35;32.73
74913;BME280;63878;55.624;37.304;2023-05-14T14:37:58;99664.28;;;13.37;32.64
74913;BME280;63878;55.624;37.304;2023-05-14T14:48:28;99674.34;;;13.24;32.75
74913;BME280;63878;55.624;37.304;2023-05-14T14:58:29;99664.16;;;13.10;32.97
74913;BME280;63878;55.624;37.304;2023-05-14T15:08:29;99671.28;;;13.29;33.32
74913;BME280;63878;55.624;37.304;2023-05-14T15:18:29;99661.09;;;13.14;33.77
74913;BME280;63878;55.624;37.304;2023-05-14T15:28:30;99670.25;;;12.81;34.00
74913;BME280;63878;55.624;37.304;2023-05-14T15:38:31;99663.56;;;12.77;33.67
74913;BME280;63878;55.624;37.304;2023-05-14T15:48:31;99661.69;;;12.68;33.57
74913;BME280;63878;55.624;37.304;2023-05-14T15:58:32;99653.41;;;12.42;34.18
74913;BME280;63878;55.624;37.304;2023-05-14T16:08:32;99654.94;;;12.44;33.03
74913;BME280;63878;55.624;37.304;2023-05-14T16:18:33;99648.75;;;12.25;33.78
74913;BME280;63878;55.624;37.304;2023-05-14T16:28:34;99647.50;;;12.29;34.52
74913;BME280;63878;55.624;37.304;2023-05-14T16:38:34;99660.84;;;12.17;35.68
74913;BME280;63878;55.624;37.304;2023-05-14T16:48:35;99664.91;;;12.22;35.52
74913;BME280;63878;55.624;37.304;2023-05-14T16:58:35;99662.13;;;12.23;35.29
74913;BME280;63878;55.624;37.304;2023-05-14T17:08:36;99677.22;;;12.02;35.33
74913;BME280;63878;55.624;37.304;2023-05-14T17:18:36;99669.50;;;12.20;34.63
74913;BME280;63878;55.624;37.304;2023-05-14T17:28:37;99677.88;;;11.94;35.16
74913;BME280;63878;55.624;37.304;2023-05-14T17:38:37;99679.88;;;12.11;35.09
74913;BME280;63878;55.624;37.304;2023-05-14T17:48:38;99694.38;;;12.07;34.79
74913;BME280;63878;55.624;37.304;2023-05-14T17:58:38;99685.16;;;11.39;38.24
74913;BME280;63878;55.624;37.304;2023-05-14T18:08:39;99714.25;;;11.28;37.21
74913;BME280;63878;55.624;37.304;2023-05-14T18:18:39;99709.16;;;11.36;38.32
74913;BME280;63878;55.624;37.304;2023-05-14T18:28:40;99720.78;;;11.45;36.25
74913;BME280;63878;55.624;37.304;2023-05-14T18:38:40;99716.00;;;11.06;36.71
74913;BME280;63878;55.624;37.304;2023-05-14T18:48:41;99719.78;;;10.93;40.76
74913;BME280;63878;55.624;37.304;2023-05-14T18:58:42;99724.59;;;10.54;37.41
74913;BME280;63878;55.624;37.304;2023-05-14T19:08:42;99728.19;;;10.53;37.79
74913;BME280;63878;55.624;37.304;2023-05-14T19:18:43;99706.69;;;10.02;39.23
74913;BME280;63878;55.624;37.304;2023-05-14T19:28:43;99745.09;;;10.28;39.37
74913;BME280;63878;55.624;37.304;2023-05-14T19:38:44;99732.00;;;10.15;39.02
74913;BME280;63878;55.624;37.304;2023-05-14T19:48:44;99736.88;;;9.86;40.22
74913;BME280;63878;55.624;37.304;2023-05-14T19:58:45;99729.34;;;9.93;40.51
74913;BME280;63878;55.624;37.304;2023-05-14T20:08:45;99734.88;;;10.23;39.05
74913;BME280;63878;55.624;37.304;2023-05-14T20:18:46;99733.34;;;10.32;39.35
74913;BME280;63878;55.624;37.304;2023-05-14T20:28:47;99730.56;;;10.22;39.29
74913;BME280;63878;55.624;37.304;2023-05-14T20:38:47;99724.44;;;9.99;40.36
74913;BME280;63878;55.624;37.304;2023-05-14T20:48:48;99735.97;;;9.15;43.94
74913;BME280;63878;55.624;37.304;2023-05-14T20:58:49;99729.34;;;8.86;43.11
74913;BME280;63878;55.624;37.304;2023-05-14T21:08:49;99735.13;;;8.91;43.81
74913;BME280;63878;55.624;37.304;2023-05-14T21:18:50;99742.09;;;8.92;43.82
74913;BME280;63878;55.624;37.304;2023-05-14T21:28:50;99736.81;;;9.16;42.83
74913;BME280;63878;55.624;37.304;2023-05-14T21:38:52;99737.16;;;9.11;43.67
74913;BME280;63878;55.624;37.304;2023-05-14T21:48:53;99735.63;;;8.96;43.29
74913;BME280;63878;55.624;37.304;2023-05-14T21:58:53;99728.13;;;8.79;44.00
74913;BME280;63878;55.624;37.304;2023-05-14T22:08:54;99741.00;;;8.95;44.21
74913;BME280;63878;55.624;37.304;2023-05-14T22:18:54;99722.03;;;8.66;44.92
74913;BME280;63878;55.624;37.304;2023-05-14T22:28:55;99735.22;;;8.53;45.18
74913;BME280;63878;55.624;37.304;2023-05-14T22:38:56;99733.53;;;8.52;45.05
74913;BME280;63878;55.624;37.304;2023-05-14T22:48:56;99736.91;;;8.54;45.73
74913;BME280;63878;55.624;37.304;2023-05-14T22:58:57;99737.88;;;8.40;45.31
74913;BME280;63878;55.624;37.304;2023-05-14T23:08:58;99741.34;;;8.28;46.08
74913;BME280;63878;55.624;37.304;2023-05-14T23:18:59;99735.13;;;8.29;45.75
74913;BME280;63878;55.624;37.304;2023-05-14T23:28:59;99743.34;;;8.12;47.01
74913;BME280;63878;55.624;37.304;2023-05-14T23:39:00;99738.38;;;7.94;46.54
74913;BME280;63878;55.624;37.304;2023-05-14T23:49:01;99750.66;;;7.94;46.70
74913;BME280;63878;55.624;37.304;2023-05-14T23:59:02;99753.16;;;7.70;47.13
